createdAt,value
2023-04-28T00:00:21.576Z,40.61
2023-04-28T00:02:50.046Z,40.61
2023-04-28T00:05:18.704Z,40.54
2023-04-28T00:07:47.221Z,40.47
2023-04-28T00:10:15.882Z,40.79
2023-04-28T00:12:45.632Z,41.00
2023-04-28T00:15:13.948Z,40.92
2023-04-28T00:17:42.372Z,41.13
2023-04-28T00:20:13.066Z,41.18
2023-04-28T00:22:41.439Z,41.37
2023-04-28T00:25:11.125Z,41.40
2023-04-28T00:27:39.452Z,41.39
2023-04-28T00:30:16.516Z,41.39
2023-04-28T00:32:44.984Z,41.37
2023-04-28T00:35:13.334Z,41.43
2023-04-28T00:37:41.652Z,41.54
2023-04-28T00:40:11.305Z,41.64
2023-04-28T00:42:39.625Z,41.58
2023-04-28T00:45:09.200Z,41.64
2023-04-28T00:47:39.631Z,41.65
2023-04-28T00:50:10.621Z,41.52
2023-04-28T00:52:40.590Z,41.30
2023-04-28T00:55:10.585Z,41.55
2023-04-28T00:57:38.940Z,41.54
2023-04-28T01:00:09.143Z,41.76
2023-04-28T01:02:39.161Z,41.86
2023-04-28T01:05:08.122Z,41.83
2023-04-28T01:07:37.211Z,41.87
2023-04-28T01:10:06.984Z,42.00
2023-04-28T01:12:35.290Z,42.14
2023-04-28T01:15:04.228Z,42.06
2023-04-28T01:17:32.622Z,42.04
2023-04-28T01:20:02.577Z,42.05
2023-04-28T01:22:31.049Z,42.00
2023-04-28T01:25:00.915Z,42.11
2023-04-28T01:27:29.238Z,42.01
2023-04-28T01:30:02.861Z,42.11
2023-04-28T01:32:31.220Z,42.12
2023-04-28T01:34:59.606Z,42.13
2023-04-28T01:37:27.978Z,42.47
2023-04-28T01:39:56.316Z,42.28
2023-04-28T01:42:28.728Z,42.58
2023-04-28T01:44:57.145Z,42.38
2023-04-28T01:47:25.806Z,42.72
2023-04-28T01:49:54.149Z,42.83
2023-04-28T01:52:27.344Z,42.65
2023-04-28T01:54:56.005Z,42.80
2023-04-28T01:57:24.461Z,43.01
2023-04-28T01:59:54.182Z,42.91
2023-04-28T02:02:22.689Z,43.09
2023-04-28T02:04:51.444Z,43.18
2023-04-28T02:07:19.846Z,43.33
2023-04-28T02:09:48.332Z,43.33
2023-04-28T02:12:19.364Z,43.35
2023-04-28T02:14:47.627Z,43.53
2023-04-28T02:17:17.406Z,43.68
2023-04-28T02:19:45.769Z,43.67
2023-04-28T02:22:14.047Z,43.61
2023-04-28T02:24:42.342Z,43.61
2023-04-28T02:27:10.669Z,43.71
2023-04-28T02:29:39.000Z,43.85
2023-04-28T02:32:08.010Z,43.99
2023-04-28T02:34:37.676Z,43.82
2023-04-28T02:37:08.599Z,43.85
2023-04-28T02:39:36.932Z,44.05
2023-04-28T02:42:05.590Z,44.09
2023-04-28T02:44:33.934Z,44.03
2023-04-28T02:47:02.486Z,44.08
2023-04-28T02:49:30.953Z,43.93
2023-04-28T02:52:00.831Z,43.94
2023-04-28T02:54:29.165Z,44.04
2023-04-28T02:56:58.040Z,44.11
2023-04-28T02:59:27.247Z,44.05
2023-04-28T03:01:55.562Z,44.10
2023-04-28T03:04:23.974Z,44.21
2023-04-28T03:06:52.449Z,44.26
2023-04-28T03:09:22.329Z,44.52
2023-04-28T03:11:50.912Z,44.29
2023-04-28T03:14:19.205Z,44.38
2023-04-28T03:16:47.650Z,44.30
2023-04-28T03:19:15.988Z,44.47
2023-04-28T03:21:44.361Z,44.40
2023-04-28T03:24:12.733Z,44.51
2023-04-28T03:26:42.518Z,44.58
2023-04-28T03:29:13.387Z,44.65
2023-04-28T03:31:41.772Z,44.65
2023-04-28T03:34:10.095Z,44.56
2023-04-28T03:36:38.417Z,44.67
2023-04-28T03:39:06.726Z,44.60
2023-04-28T03:41:35.020Z,44.96
2023-04-28T03:44:04.746Z,44.87
2023-04-28T03:46:34.623Z,44.90
2023-04-28T03:49:03.344Z,44.89
2023-04-28T03:51:32.989Z,44.96
2023-04-28T03:54:01.534Z,44.86
2023-04-28T03:56:29.903Z,45.26
2023-04-28T03:58:58.323Z,45.04
2023-04-28T04:01:28.137Z,45.21
2023-04-28T04:03:56.754Z,45.19
2023-04-28T04:06:28.500Z,45.15
2023-04-28T04:08:56.969Z,45.15
2023-04-28T04:11:25.345Z,45.30
2023-04-28T04:13:53.733Z,45.25
2023-04-28T04:16:25.335Z,45.39
2023-04-28T04:18:55.106Z,45.29
2023-04-28T04:21:23.488Z,45.43
2023-04-28T04:23:51.829Z,45.65
2023-04-28T04:26:20.241Z,45.58
2023-04-28T04:28:48.514Z,45.63
2023-04-28T04:31:17.043Z,45.64
2023-04-28T04:33:45.495Z,45.78
2023-04-28T04:36:15.209Z,45.81
2023-04-28T04:38:43.526Z,45.67
2023-04-28T04:41:11.836Z,45.76
2023-04-28T04:43:42.769Z,45.77
2023-04-28T04:46:11.192Z,45.87
2023-04-28T04:48:39.572Z,46.01
2023-04-28T04:51:08.012Z,45.85
2023-04-28T04:53:37.704Z,45.79
2023-04-28T04:56:06.892Z,45.75
2023-04-28T04:58:35.307Z,45.84
2023-04-28T05:01:03.594Z,46.20
2023-04-28T05:03:32.117Z,46.31
2023-04-28T05:06:01.549Z,46.33
2023-04-28T05:08:29.858Z,46.40
2023-04-28T05:11:02.629Z,46.65
2023-04-28T05:13:35.337Z,46.61
2023-04-28T05:16:03.692Z,46.40
2023-04-28T05:18:32.231Z,46.59
2023-04-28T05:21:03.643Z,46.67
2023-04-28T05:23:31.934Z,46.57
2023-04-28T05:26:03.066Z,46.60
2023-04-28T05:28:31.728Z,46.45
2023-04-28T05:31:00.079Z,46.43
2023-04-28T05:33:28.424Z,46.50
2023-04-28T05:35:56.757Z,46.54
2023-04-28T05:38:28.264Z,46.58
2023-04-28T05:40:59.406Z,46.43
2023-04-28T05:43:29.416Z,46.58
2023-04-28T05:45:57.827Z,46.83
2023-04-28T05:48:26.288Z,46.85
2023-04-28T05:50:54.575Z,46.71
2023-04-28T05:53:22.905Z,46.53
2023-04-28T05:55:51.322Z,46.59
2023-04-28T05:58:19.658Z,46.37
2023-04-28T06:00:49.435Z,46.36
2023-04-28T06:03:19.262Z,46.39
2023-04-28T06:05:48.008Z,46.28
2023-04-28T06:08:16.493Z,46.20
2023-04-28T06:10:44.906Z,46.18
2023-04-28T06:13:15.048Z,46.04
2023-04-28T06:15:43.503Z,46.02
2023-04-28T06:18:13.319Z,45.96
2023-04-28T06:20:41.605Z,46.17
2023-04-28T06:23:10.156Z,45.99
2023-04-28T06:25:38.566Z,46.04
2023-04-28T06:28:07.988Z,45.79
2023-04-28T06:30:36.978Z,45.84
2023-04-28T06:33:05.412Z,45.85
2023-04-28T06:35:39.150Z,45.45
2023-04-28T06:38:11.197Z,45.30
2023-04-28T06:40:40.732Z,44.79
2023-04-28T06:43:09.065Z,44.67
2023-04-28T06:45:37.473Z,44.84
2023-04-28T06:48:06.583Z,44.65
2023-04-28T06:50:36.792Z,44.50
2023-04-28T06:53:05.062Z,44.39
2023-04-28T06:55:34.013Z,44.64
2023-04-28T06:58:02.474Z,44.40
2023-04-28T07:00:30.909Z,44.56
2023-04-28T07:02:59.335Z,44.52
2023-04-28T07:05:27.921Z,44.25
2023-04-28T07:07:57.584Z,44.42
2023-04-28T07:10:25.994Z,44.42
2023-04-28T07:12:54.387Z,44.43
2023-04-28T07:15:23.987Z,44.40
2023-04-28T07:17:52.518Z,44.56
2023-04-28T07:20:21.397Z,44.51
2023-04-28T07:22:49.875Z,45.08
2023-04-28T07:25:19.687Z,45.21
2023-04-28T07:27:48.051Z,45.33
2023-04-28T07:30:27.502Z,45.32
2023-04-28T07:32:56.915Z,45.36
2023-04-28T07:35:25.752Z,45.69
2023-04-28T07:37:54.827Z,45.74
2023-04-28T07:40:24.792Z,45.81
2023-04-28T07:42:53.184Z,46.00
2023-04-28T07:45:21.667Z,46.16
2023-04-28T07:47:50.031Z,45.99
2023-04-28T07:50:18.410Z,46.47
2023-04-28T07:52:46.783Z,46.63
2023-04-28T07:55:15.144Z,46.91
2023-04-28T07:57:44.817Z,47.01
2023-04-28T08:00:14.703Z,47.13
2023-04-28T08:02:43.282Z,47.59
2023-04-28T08:05:12.052Z,47.72
2023-04-28T08:07:40.504Z,47.71
2023-04-28T08:10:10.680Z,47.95
2023-04-28T08:12:40.873Z,48.03
2023-04-28T08:15:11.701Z,48.15
2023-04-28T08:17:40.074Z,48.42
2023-04-28T08:20:10.386Z,48.81
2023-04-28T08:22:38.710Z,48.78
2023-04-28T08:25:08.373Z,49.11
2023-04-28T08:27:38.325Z,49.17
2023-04-28T08:30:11.553Z,49.37
2023-04-28T08:32:41.359Z,49.41
2023-04-28T08:35:10.441Z,49.61
2023-04-28T08:37:38.796Z,50.01
2023-04-28T08:40:13.790Z,50.11
2023-04-28T08:42:42.968Z,50.60
2023-04-28T08:45:15.694Z,50.27
2023-04-28T08:47:47.711Z,50.60
2023-04-28T08:50:16.716Z,51.02
2023-04-28T08:52:45.063Z,50.63
2023-04-28T08:55:15.776Z,50.90
2023-04-28T08:57:54.098Z,51.00
2023-04-28T09:00:23.349Z,51.21
2023-04-28T09:02:53.164Z,51.43
2023-04-28T09:05:22.128Z,51.29
2023-04-28T09:07:52.133Z,51.45
2023-04-28T09:10:23.309Z,51.63
2023-04-28T09:12:55.159Z,51.73
2023-04-28T09:15:35.996Z,51.66
2023-04-28T09:18:08.155Z,51.92
2023-04-28T09:20:39.532Z,52.00
2023-04-28T09:23:18.624Z,52.12
2023-04-28T09:26:02.465Z,52.20
2023-04-28T09:28:31.018Z,52.47
2023-04-28T09:30:59.441Z,52.74
2023-04-28T09:33:29.319Z,53.02
2023-04-28T09:35:57.762Z,52.92
2023-04-28T09:38:26.802Z,53.10
2023-04-28T09:40:58.404Z,53.52
2023-04-28T09:43:29.470Z,53.67
2023-04-28T09:45:59.565Z,54.03
2023-04-28T09:48:35.552Z,53.78
2023-04-28T09:51:07.822Z,53.91
2023-04-28T09:53:36.737Z,54.41
2023-04-28T09:56:06.561Z,53.90
2023-04-28T09:58:36.805Z,54.12
2023-04-28T10:01:06.587Z,54.13
2023-04-28T10:03:37.586Z,54.15
2023-04-28T10:06:08.608Z,54.53
2023-04-28T10:08:36.907Z,54.69
2023-04-28T10:11:05.332Z,54.42
2023-04-28T10:13:33.773Z,54.52
2023-04-28T10:16:02.270Z,54.34
2023-04-28T10:18:31.998Z,54.38
2023-04-28T10:21:04.751Z,53.94
2023-04-28T10:24:05.167Z,54.03
2023-04-28T10:27:08.394Z,53.84
2023-04-28T10:29:37.693Z,53.98
2023-04-28T10:32:21.072Z,54.20
2023-04-28T10:34:49.800Z,54.38
2023-04-28T10:37:19.996Z,53.95
2023-04-28T10:40:34.804Z,53.69
2023-04-28T10:43:04.165Z,53.81
2023-04-28T10:46:01.495Z,53.85
2023-04-28T10:48:56.385Z,53.93
2023-04-28T10:51:33.164Z,54.04
2023-04-28T10:54:28.255Z,53.68
2023-04-28T10:57:22.989Z,53.87
2023-04-28T10:59:52.359Z,54.00
2023-04-28T11:02:51.122Z,54.09
2023-04-28T11:05:20.829Z,54.13
2023-04-28T11:08:34.405Z,53.92
2023-04-28T11:11:22.047Z,54.12
2023-04-28T11:13:51.518Z,54.38
2023-04-28T11:16:23.737Z,55.09
2023-04-28T11:19:04.543Z,54.54
2023-04-28T11:21:34.595Z,54.53
2023-04-28T11:24:10.521Z,54.76
2023-04-28T11:26:40.539Z,54.77
2023-04-28T11:29:09.688Z,54.72
2023-04-28T11:31:38.487Z,54.90
2023-04-28T11:34:08.375Z,54.99
2023-04-28T11:36:38.962Z,55.07
2023-04-28T11:39:08.868Z,55.29
2023-04-28T11:41:40.138Z,54.79
2023-04-28T11:44:12.904Z,54.98
2023-04-28T11:46:50.663Z,54.88
2023-04-28T11:49:21.146Z,55.22
2023-04-28T11:51:50.388Z,55.28
2023-04-28T11:54:23.409Z,55.19
2023-04-28T11:56:57.858Z,55.05
2023-04-28T11:59:28.381Z,55.16
2023-04-28T12:01:59.421Z,55.28
2023-04-28T12:04:30.567Z,55.33
2023-04-28T12:07:09.189Z,55.38
2023-04-28T12:09:40.118Z,55.95
2023-04-28T12:12:12.308Z,55.90
2023-04-28T12:14:57.789Z,56.27
2023-04-28T12:17:27.808Z,56.41
2023-04-28T12:19:56.478Z,56.54
2023-04-28T12:22:25.677Z,56.55
2023-04-28T12:25:08.563Z,56.31
2023-04-28T12:27:40.761Z,56.50
2023-04-28T12:30:27.993Z,56.38
2023-04-28T12:32:57.738Z,56.28
2023-04-28T12:35:27.523Z,56.36
2023-04-28T12:37:58.586Z,56.43
2023-04-28T12:40:27.212Z,56.93
2023-04-28T12:42:57.093Z,56.67
2023-04-28T12:45:25.507Z,56.62
2023-04-28T12:47:53.875Z,56.74
2023-04-28T12:50:22.388Z,56.70
2023-04-28T12:52:50.800Z,56.60
2023-04-28T12:55:20.229Z,56.64
2023-04-28T12:57:48.626Z,56.28
2023-04-28T13:00:23.126Z,56.35
2023-04-28T13:02:53.438Z,56.15
2023-04-28T13:05:22.121Z,56.18
2023-04-28T13:07:50.928Z,56.66
2023-04-28T13:10:21.300Z,56.48
2023-04-28T13:12:49.680Z,56.34
2023-04-28T13:15:22.512Z,56.30
2023-04-28T13:17:50.873Z,56.45
2023-04-28T13:20:19.303Z,56.21
2023-04-28T13:22:47.716Z,56.32
2023-04-28T13:25:16.359Z,56.13
2023-04-28T13:27:44.740Z,56.09
2023-04-28T13:30:26.843Z,55.99
2023-04-28T13:32:57.389Z,56.33
2023-04-28T13:35:26.298Z,56.23
2023-04-28T13:38:01.633Z,56.08
2023-04-28T13:40:30.233Z,56.16
2023-04-28T13:42:58.609Z,55.97
2023-04-28T13:45:28.789Z,56.00
2023-04-28T13:47:57.145Z,56.01
2023-04-28T13:50:25.773Z,56.28
2023-04-28T13:52:59.806Z,56.27
2023-04-28T13:55:28.759Z,56.21
2023-04-28T13:58:01.548Z,56.43
2023-04-28T14:00:32.288Z,56.41
2023-04-28T14:03:01.582Z,56.57
2023-04-28T14:05:36.120Z,56.39
2023-04-28T14:08:11.342Z,56.07
2023-04-28T14:10:47.272Z,56.32
2023-04-28T14:13:15.896Z,56.40
2023-04-28T14:15:57.891Z,56.37
2023-04-28T14:18:27.787Z,56.28
2023-04-28T14:20:56.510Z,56.25
2023-04-28T14:23:24.789Z,56.30
2023-04-28T14:25:57.998Z,56.39
2023-04-28T14:28:26.540Z,56.37
2023-04-28T14:30:56.790Z,56.42
2023-04-28T14:33:25.384Z,56.52
2023-04-28T14:35:56.545Z,56.46
2023-04-28T14:38:25.000Z,56.36
2023-04-28T14:40:53.846Z,56.51
2023-04-28T14:43:22.217Z,56.59
2023-04-28T14:45:51.163Z,56.63
2023-04-28T14:48:21.218Z,56.58
2023-04-28T14:50:51.349Z,56.60
2023-04-28T14:53:19.657Z,56.65
2023-04-28T14:55:48.028Z,56.60
2023-04-28T14:58:16.394Z,56.75
2023-04-28T15:00:44.870Z,56.57
2023-04-28T15:03:13.527Z,56.77
2023-04-28T15:05:44.081Z,56.79
2023-04-28T15:08:12.779Z,56.68
2023-04-28T15:10:41.876Z,56.53
2023-04-28T15:13:10.355Z,56.42
2023-04-28T15:15:43.601Z,56.46
2023-04-28T15:18:11.993Z,56.49
2023-04-28T15:20:40.422Z,56.58
2023-04-28T15:23:10.840Z,56.45
2023-04-28T15:25:39.278Z,56.54
2023-04-28T15:28:08.056Z,56.48
2023-04-28T15:30:36.727Z,56.57
2023-04-28T15:33:05.383Z,56.54
2023-04-28T15:35:34.998Z,56.39
2023-04-28T15:38:03.368Z,56.34
2023-04-28T15:40:33.098Z,56.33
2023-04-28T15:43:01.459Z,56.37
2023-04-28T15:45:29.875Z,56.48
2023-04-28T15:47:58.296Z,56.50
2023-04-28T15:50:26.945Z,56.62
2023-04-28T15:52:55.460Z,56.63
2023-04-28T15:55:25.122Z,56.63
2023-04-28T15:57:55.053Z,56.53
2023-04-28T16:00:23.631Z,56.55
2023-04-28T16:02:52.580Z,56.75
2023-04-28T16:05:23.879Z,56.69
2023-04-28T16:07:52.887Z,56.82
2023-04-28T16:10:21.272Z,56.77
2023-04-28T16:12:49.757Z,56.98
2023-04-28T16:15:19.803Z,56.86
2023-04-28T16:17:49.194Z,57.13
2023-04-28T16:20:17.850Z,57.17
2023-04-28T16:22:46.685Z,57.21
2023-04-28T16:25:15.069Z,57.45
2023-04-28T16:27:43.735Z,57.61
2023-04-28T16:30:22.918Z,57.47
2023-04-28T16:32:52.926Z,57.77
2023-04-28T16:35:21.828Z,58.04
2023-04-28T16:37:50.230Z,57.80
2023-04-28T16:40:18.806Z,57.78
2023-04-28T16:42:47.318Z,57.74
2023-04-28T16:45:15.812Z,57.89
2023-04-28T16:47:46.433Z,57.88
2023-04-28T16:50:15.752Z,57.85
2023-04-28T16:52:44.210Z,57.76
2023-04-28T16:55:16.398Z,57.62
2023-04-28T16:57:45.684Z,57.61
2023-04-28T17:00:15.836Z,57.63
2023-04-28T17:02:45.829Z,57.38
2023-04-28T17:05:17.578Z,57.33
2023-04-28T17:07:46.056Z,57.55
2023-04-28T17:10:14.534Z,57.71
2023-04-28T17:12:45.473Z,57.58
2023-04-28T17:15:20.310Z,57.57
2023-04-28T17:17:52.089Z,57.53
2023-04-28T17:20:21.652Z,57.56
2023-04-28T17:22:50.762Z,57.31
2023-04-28T17:25:19.662Z,57.27
2023-04-28T17:27:47.979Z,57.44
2023-04-28T17:30:16.569Z,57.45
2023-04-28T17:32:45.029Z,57.39
2023-04-28T17:35:14.810Z,57.21
2023-04-28T17:37:43.321Z,57.27
2023-04-28T17:40:13.100Z,57.36
2023-04-28T17:42:41.487Z,57.37
2023-04-28T17:45:12.153Z,57.45
2023-04-28T17:47:40.544Z,57.27
2023-04-28T17:50:10.975Z,57.39
2023-04-28T17:52:41.986Z,57.45
2023-04-28T17:55:17.685Z,57.32
2023-04-28T17:57:46.301Z,57.19
2023-04-28T18:00:15.741Z,57.25
2023-04-28T18:02:44.203Z,57.17
2023-04-28T18:05:12.692Z,57.16
2023-04-28T18:07:42.463Z,57.24
2023-04-28T18:10:15.224Z,57.27
2023-04-28T18:12:43.625Z,57.27
2023-04-28T18:15:12.974Z,57.41
2023-04-28T18:17:41.400Z,57.35
2023-04-28T18:20:16.273Z,57.37
2023-04-28T18:22:46.252Z,57.33
2023-04-28T18:25:16.782Z,57.30
2023-04-28T18:27:45.894Z,57.33
2023-04-28T18:30:16.876Z,57.37
2023-04-28T18:32:45.407Z,57.43
2023-04-28T18:35:15.122Z,57.33
2023-04-28T18:37:47.031Z,57.41
2023-04-28T18:40:20.622Z,57.13
2023-04-28T18:42:49.267Z,57.28
2023-04-28T18:45:17.978Z,57.33
2023-04-28T18:47:46.559Z,57.25
2023-04-28T18:50:18.056Z,57.24
2023-04-28T18:52:47.980Z,57.25
2023-04-28T18:55:17.362Z,57.18
2023-04-28T18:57:47.459Z,57.36
2023-04-28T19:00:16.453Z,57.40
2023-04-28T19:02:45.413Z,57.38
2023-04-28T19:05:14.525Z,57.39
2023-04-28T19:07:43.220Z,57.47
2023-04-28T19:10:14.973Z,57.45
2023-04-28T19:12:43.645Z,57.61
2023-04-28T19:15:14.984Z,57.63
2023-04-28T19:17:43.675Z,57.64
2023-04-28T19:20:13.594Z,57.68
2023-04-28T19:22:43.904Z,57.74
2023-04-28T19:25:16.171Z,57.67
2023-04-28T19:27:46.120Z,57.76
2023-04-28T19:30:16.862Z,57.66
2023-04-28T19:32:45.649Z,57.61
2023-04-28T19:35:14.673Z,57.59
2023-04-28T19:37:43.338Z,57.66
2023-04-28T19:40:16.874Z,57.56
2023-04-28T19:42:45.489Z,57.53
2023-04-28T19:45:14.183Z,57.65
2023-04-28T19:47:42.780Z,57.86
2023-04-28T19:50:16.627Z,58.01
2023-04-28T19:52:49.240Z,57.90
2023-04-28T19:55:21.352Z,58.13
2023-04-28T19:57:49.993Z,58.15
2023-04-28T20:00:19.445Z,58.13
2023-04-28T20:02:48.201Z,58.08
2023-04-28T20:05:16.859Z,57.87
2023-04-28T20:07:45.484Z,57.99
2023-04-28T20:10:14.051Z,57.89
2023-04-28T20:12:43.935Z,57.85
2023-04-28T20:15:13.789Z,57.73
2023-04-28T20:17:42.224Z,57.67
2023-04-28T20:20:11.561Z,57.52
2023-04-28T20:22:40.795Z,57.35
2023-04-28T20:25:10.986Z,57.38
2023-04-28T20:27:39.423Z,57.38
2023-04-28T20:30:10.438Z,57.25
2023-04-28T20:32:39.178Z,57.23
2023-04-28T20:35:10.052Z,57.30
2023-04-28T20:37:38.544Z,57.25
2023-04-28T20:40:10.209Z,57.09
2023-04-28T20:42:38.540Z,57.12
2023-04-28T20:45:14.895Z,57.04
2023-04-28T20:47:43.239Z,56.84
2023-04-28T20:50:13.088Z,56.71
2023-04-28T20:52:41.398Z,56.70
2023-04-28T20:55:15.773Z,56.48
2023-04-28T20:57:44.034Z,56.29
2023-04-28T21:00:16.010Z,56.31
2023-04-28T21:02:45.387Z,56.16
2023-04-28T21:05:17.767Z,56.07
2023-04-28T21:07:46.142Z,56.06
2023-04-28T21:10:14.604Z,55.85
2023-04-28T21:12:43.074Z,55.86
2023-04-28T21:15:13.445Z,55.75
2023-04-28T21:17:41.889Z,55.83
2023-04-28T21:20:11.757Z,55.69
2023-04-28T21:22:40.133Z,55.68
2023-04-28T21:25:11.305Z,55.57
2023-04-28T21:27:39.838Z,55.42
2023-04-28T21:30:10.255Z,55.19
2023-04-28T21:32:40.103Z,55.16
2023-04-28T21:35:10.785Z,55.27
2023-04-28T21:37:39.048Z,55.17
2023-04-28T21:40:09.583Z,55.18
2023-04-28T21:42:38.004Z,55.24
2023-04-28T21:45:09.453Z,55.14
2023-04-28T21:47:41.381Z,55.29
2023-04-28T21:50:11.574Z,55.05
2023-04-28T21:52:39.986Z,55.25
2023-04-28T21:55:09.561Z,55.06
2023-04-28T21:57:37.860Z,55.00
2023-04-28T22:00:10.792Z,55.05
2023-04-28T22:02:41.648Z,55.10
2023-04-28T22:05:10.995Z,55.00
2023-04-28T22:07:39.308Z,55.14
2023-04-28T22:10:12.292Z,54.93
2023-04-28T22:12:40.615Z,55.19
2023-04-28T22:15:10.303Z,54.88
2023-04-28T22:17:40.500Z,54.93
2023-04-28T22:20:10.402Z,54.88
2023-04-28T22:22:38.687Z,54.89
2023-04-28T22:25:08.746Z,54.87
2023-04-28T22:27:37.107Z,54.92
2023-04-28T22:30:08.310Z,54.78
2023-04-28T22:32:36.838Z,54.81
2023-04-28T22:35:07.884Z,54.97
2023-04-28T22:37:38.012Z,55.03
2023-04-28T22:40:08.810Z,55.16
2023-04-28T22:42:37.991Z,55.28
2023-04-28T22:45:07.635Z,55.34
2023-04-28T22:47:36.477Z,55.32
2023-04-28T22:50:08.073Z,55.51
2023-04-28T22:52:36.666Z,55.52
2023-04-28T22:55:12.684Z,55.69
2023-04-28T22:57:41.129Z,55.90
2023-04-28T23:00:11.162Z,56.21
2023-04-28T23:02:39.692Z,56.17
2023-04-28T23:05:15.914Z,56.24
2023-04-28T23:07:44.602Z,56.48
2023-04-28T23:10:18.379Z,56.63
2023-04-28T23:12:46.875Z,56.63
2023-04-28T23:15:15.208Z,56.73
2023-04-28T23:17:45.072Z,56.98
2023-04-28T23:20:15.725Z,57.04
2023-04-28T23:22:44.013Z,57.00
2023-04-28T23:25:12.550Z,57.04
2023-04-28T23:27:40.916Z,57.11
2023-04-28T23:30:11.180Z,57.23
2023-04-28T23:32:39.791Z,57.26
2023-04-28T23:35:09.029Z,57.33
2023-04-28T23:37:38.873Z,57.17
2023-04-28T23:40:12.078Z,57.22
2023-04-28T23:42:41.140Z,57.40
2023-04-28T23:45:11.025Z,57.69
2023-04-28T23:47:40.446Z,57.66
2023-04-28T23:50:14.623Z,57.81
2023-04-28T23:52:44.793Z,57.86
2023-04-28T23:55:16.317Z,57.96
2023-04-28T23:57:49.973Z,58.12
